sensor_id;sensor_type;location;lat;lon;timestamp;pressure;altitude;pressure_sealevel;temperature;humidity
6128;BME280;7073;42.672;23.256;2023-10-09T00:01:51;94866.13;;;18.63;60.11
6128;BME280;7073;42.672;23.256;2023-10-09T00:04:19;94883.63;;;18.74;61.10
6128;BME280;7073;42.672;23.256;2023-10-09T00:06:47;94883.00;;;18.62;61.48
6128;BME280;7073;42.672;23.256;2023-10-09T00:09:15;94883.06;;;18.67;60.80
6128;BME280;7073;42.672;23.256;2023-10-09T00:12:07;94880.41;;;18.67;61.36
6128;BME280;7073;42.672;23.256;2023-10-09T00:14:36;94882.84;;;18.74;60.68
6128;BME280;7073;42.672;23.256;2023-10-09T00:17:04;94886.69;;;18.61;61.62
6128;BME280;7073;42.672;23.256;2023-10-09T00:19:43;94868.19;;;18.56;61.07
6128;BME280;7073;42.672;23.256;2023-10-09T00:22:13;94873.13;;;18.48;61.38
6128;BME280;7073;42.672;23.256;2023-10-09T00:24:52;94866.88;;;18.32;62.31
6128;BME280;7073;42.672;23.256;2023-10-09T00:27:37;94875.28;;;18.29;62.53
6128;BME280;7073;42.672;23.256;2023-10-09T00:30:09;94834.19;;;18.06;62.50
6128;BME280;7073;42.672;23.256;2023-10-09T00:32:37;94871.56;;;18.25;62.03
6128;BME280;7073;42.672;23.256;2023-10-09T00:35:17;94866.13;;;18.10;63.14
6128;BME280;7073;42.672;23.256;2023-10-09T00:38:02;94867.91;;;18.04;63.09
6128;BME280;7073;42.672;23.256;2023-10-09T00:40:35;94864.13;;;17.95;63.24
6128;BME280;7073;42.672;23.256;2023-10-09T00:43:12;94850.22;;;17.78;63.83
6128;BME280;7073;42.672;23.256;2023-10-09T00:45:39;94869.47;;;17.79;63.71
6128;BME280;7073;42.672;23.256;2023-10-09T00:48:09;94866.31;;;17.77;63.53
6128;BME280;7073;42.672;23.256;2023-10-09T00:50:39;94860.44;;;17.69;64.39
6128;BME280;7073;42.672;23.256;2023-10-09T00:53:14;94857.75;;;17.64;64.39
6128;BME280;7073;42.672;23.256;2023-10-09T00:55:44;94863.66;;;17.55;64.96
6128;BME280;7073;42.672;23.256;2023-10-09T00:58:22;94875.47;;;17.52;64.78
6128;BME280;7073;42.672;23.256;2023-10-09T01:00:52;94880.69;;;17.47;64.92
6128;BME280;7073;42.672;23.256;2023-10-09T01:03:20;94886.13;;;17.41;65.26
6128;BME280;7073;42.672;23.256;2023-10-09T01:05:49;94874.09;;;17.28;65.27
6128;BME280;7073;42.672;23.256;2023-10-09T01:08:23;94878.75;;;17.21;65.22
6128;BME280;7073;42.672;23.256;2023-10-09T01:10:56;94885.22;;;17.13;65.37
6128;BME280;7073;42.672;23.256;2023-10-09T01:13:36;94880.38;;;17.05;65.29
6128;BME280;7073;42.672;23.256;2023-10-09T01:16:20;94888.22;;;16.84;65.59
6128;BME280;7073;42.672;23.256;2023-10-09T01:18:49;94905.91;;;16.88;65.31
6128;BME280;7073;42.672;23.256;2023-10-09T01:21:16;94904.47;;;16.81;65.22
6128;BME280;7073;42.672;23.256;2023-10-09T01:23:46;94908.16;;;16.80;65.21
6128;BME280;7073;42.672;23.256;2023-10-09T01:26:29;94903.03;;;16.73;65.71
6128;BME280;7073;42.672;23.256;2023-10-09T01:28:59;94892.22;;;16.70;65.42
6128;BME280;7073;42.672;23.256;2023-10-09T01:31:27;94915.81;;;16.81;64.79
6128;BME280;7073;42.672;23.256;2023-10-09T01:34:03;94925.31;;;16.82;63.78
6128;BME280;7073;42.672;23.256;2023-10-09T01:36:35;94949.06;;;16.87;63.50
6128;BME280;7073;42.672;23.256;2023-10-09T01:39:06;94959.91;;;16.74;63.55
6128;BME280;7073;42.672;23.256;2023-10-09T01:41:36;94938.91;;;16.63;63.66
6128;BME280;7073;42.672;23.256;2023-10-09T01:44:11;94944.44;;;16.49;64.96
6128;BME280;7073;42.672;23.256;2023-10-09T01:46:41;94939.75;;;16.51;64.91
6128;BME280;7073;42.672;23.256;2023-10-09T01:49:08;94930.22;;;16.34;65.42
6128;BME280;7073;42.672;23.256;2023-10-09T01:51:42;94906.94;;;16.26;64.77
6128;BME280;7073;42.672;23.256;2023-10-09T01:54:11;94937.75;;;16.14;66.58
6128;BME280;7073;42.672;23.256;2023-10-09T01:56:53;94959.00;;;16.12;66.89
6128;BME280;7073;42.672;23.256;2023-10-09T01:59:22;94952.63;;;16.20;66.66
6128;BME280;7073;42.672;23.256;2023-10-09T02:01:48;94951.19;;;16.01;67.17
6128;BME280;7073;42.672;23.256;2023-10-09T02:04:20;94960.69;;;15.90;68.21
6128;BME280;7073;42.672;23.256;2023-10-09T02:06:47;94950.47;;;16.05;66.30
6128;BME280;7073;42.672;23.256;2023-10-09T02:09:19;94987.75;;;16.30;65.97
6128;BME280;7073;42.672;23.256;2023-10-09T02:11:52;94982.47;;;16.02;67.10
6128;BME280;7073;42.672;23.256;2023-10-09T02:14:19;94976.25;;;15.80;67.97
6128;BME280;7073;42.672;23.256;2023-10-09T02:16:47;94976.56;;;15.95;67.72
6128;BME280;7073;42.672;23.256;2023-10-09T02:19:40;94959.22;;;15.82;67.73
6128;BME280;7073;42.672;23.256;2023-10-09T02:22:08;94965.41;;;15.76;67.84
6128;BME280;7073;42.672;23.256;2023-10-09T02:24:39;94973.66;;;15.57;68.24
6128;BME280;7073;42.672;23.256;2023-10-09T02:27:17;94954.25;;;15.23;67.98
6128;BME280;7073;42.672;23.256;2023-10-09T02:30:06;94946.59;;;15.21;68.32
6128;BME280;7073;42.672;23.256;2023-10-09T02:32:44;95017.25;;;15.35;68.60
6128;BME280;7073;42.672;23.256;2023-10-09T02:35:16;94976.03;;;15.23;68.54
6128;BME280;7073;42.672;23.256;2023-10-09T02:37:47;94976.84;;;15.12;68.07
6128;BME280;7073;42.672;23.256;2023-10-09T02:40:14;94991.13;;;15.16;67.63
6128;BME280;7073;42.672;23.256;2023-10-09T02:42:50;95013.03;;;15.33;67.33
6128;BME280;7073;42.672;23.256;2023-10-09T02:45:16;95015.00;;;15.38;67.01
6128;BME280;7073;42.672;23.256;2023-10-09T02:47:44;95014.38;;;15.36;66.94
6128;BME280;7073;42.672;23.256;2023-10-09T02:50:15;95017.94;;;15.18;66.96
6128;BME280;7073;42.672;23.256;2023-10-09T02:52:53;95006.03;;;14.93;67.34
6128;BME280;7073;42.672;23.256;2023-10-09T02:55:25;95034.78;;;14.99;67.38
6128;BME280;7073;42.672;23.256;2023-10-09T02:57:53;95003.81;;;14.78;68.02
6128;BME280;7073;42.672;23.256;2023-10-09T03:00:39;95017.53;;;14.92;67.85
6128;BME280;7073;42.672;23.256;2023-10-09T03:03:09;95004.16;;;14.82;67.55
6128;BME280;7073;42.672;23.256;2023-10-09T03:05:38;95017.78;;;15.02;67.73
6128;BME280;7073;42.672;23.256;2023-10-09T03:08:09;95013.19;;;14.86;67.18
6128;BME280;7073;42.672;23.256;2023-10-09T03:10:37;95030.03;;;14.78;68.42
6128;BME280;7073;42.672;23.256;2023-10-09T03:13:04;95022.91;;;14.85;67.30
6128;BME280;7073;42.672;23.256;2023-10-09T03:15:31;95027.16;;;14.68;68.45
6128;BME280;7073;42.672;23.256;2023-10-09T03:18:01;95036.53;;;14.64;68.14
6128;BME280;7073;42.672;23.256;2023-10-09T03:20:30;95039.00;;;14.59;68.50
6128;BME280;7073;42.672;23.256;2023-10-09T03:22:58;95037.22;;;14.71;67.64
6128;BME280;7073;42.672;23.256;2023-10-09T03:25:27;95057.09;;;14.79;67.99
6128;BME280;7073;42.672;23.256;2023-10-09T03:27:54;95028.78;;;14.69;68.00
6128;BME280;7073;42.672;23.256;2023-10-09T03:30:21;95046.38;;;14.80;68.10
6128;BME280;7073;42.672;23.256;2023-10-09T03:32:49;95049.03;;;14.62;68.04
6128;BME280;7073;42.672;23.256;2023-10-09T03:35:17;95050.88;;;14.61;68.59
6128;BME280;7073;42.672;23.256;2023-10-09T03:37:52;95054.50;;;14.60;68.45
6128;BME280;7073;42.672;23.256;2023-10-09T03:40:24;95051.56;;;14.39;68.11
6128;BME280;7073;42.672;23.256;2023-10-09T03:42:51;95065.47;;;14.39;68.09
6128;BME280;7073;42.672;23.256;2023-10-09T03:45:18;95075.66;;;14.29;69.05
6128;BME280;7073;42.672;23.256;2023-10-09T03:47:53;95056.75;;;14.09;68.94
6128;BME280;7073;42.672;23.256;2023-10-09T03:50:26;95051.41;;;14.16;69.17
6128;BME280;7073;42.672;23.256;2023-10-09T03:53:02;95052.44;;;13.96;69.31
6128;BME280;7073;42.672;23.256;2023-10-09T03:55:30;95055.84;;;13.97;69.16
6128;BME280;7073;42.672;23.256;2023-10-09T03:57:57;95069.03;;;13.90;69.17
6128;BME280;7073;42.672;23.256;2023-10-09T04:00:27;95069.03;;;13.90;68.96
6128;BME280;7073;42.672;23.256;2023-10-09T04:02:55;95076.81;;;13.97;69.17
6128;BME280;7073;42.672;23.256;2023-10-09T04:05:23;95070.63;;;13.91;68.29
6128;BME280;7073;42.672;23.256;2023-10-09T04:07:49;95070.63;;;13.91;68.95
6128;BME280;7073;42.672;23.256;2023-10-09T04:10:19;95074.63;;;13.94;68.64
6128;BME280;7073;42.672;23.256;2023-10-09T04:13:22;95001.38;;;13.51;68.30
6128;BME280;7073;42.672;23.256;2023-10-09T04:16:06;95072.25;;;13.92;68.10
6128;BME280;7073;42.672;23.256;2023-10-09T04:19:03;94953.97;;;12.92;68.29
6128;BME280;7073;42.672;23.256;2023-10-09T04:21:55;95069.84;;;13.48;67.27
6128;BME280;7073;42.672;23.256;2023-10-09T04:24:34;95014.16;;;13.16;66.00
6128;BME280;7073;42.672;23.256;2023-10-09T04:27:17;95081.66;;;13.75;65.45
6128;BME280;7073;42.672;23.256;2023-10-09T04:30:07;95060.13;;;13.55;65.11
6128;BME280;7073;42.672;23.256;2023-10-09T04:32:40;95079.59;;;13.59;64.67
6128;BME280;7073;42.672;23.256;2023-10-09T04:35:10;95087.31;;;13.54;65.18
6128;BME280;7073;42.672;23.256;2023-10-09T04:37:49;95083.72;;;13.48;65.32
6128;BME280;7073;42.672;23.256;2023-10-09T04:40:39;95063.22;;;13.21;65.43
6128;BME280;7073;42.672;23.256;2023-10-09T04:43:21;95084.75;;;13.23;64.22
6128;BME280;7073;42.672;23.256;2023-10-09T04:45:53;95088.13;;;13.30;63.59
6128;BME280;7073;42.672;23.256;2023-10-09T04:48:38;95080.63;;;13.33;62.73
6128;BME280;7073;42.672;23.256;2023-10-09T04:51:05;95090.69;;;13.36;62.52
6128;BME280;7073;42.672;23.256;2023-10-09T04:54:00;95087.91;;;13.56;61.75
6128;BME280;7073;42.672;23.256;2023-10-09T04:56:41;95050.88;;;13.28;61.22
6128;BME280;7073;42.672;23.256;2023-10-09T04:59:19;95056.72;;;13.30;60.69
6128;BME280;7073;42.672;23.256;2023-10-09T05:01:54;95087.78;;;13.44;60.07
6128;BME280;7073;42.672;23.256;2023-10-09T05:04:24;95089.19;;;13.47;60.19
6128;BME280;7073;42.672;23.256;2023-10-09T05:07:06;95107.00;;;13.81;58.88
6128;BME280;7073;42.672;23.256;2023-10-09T05:09:46;95112.63;;;13.85;58.16
6128;BME280;7073;42.672;23.256;2023-10-09T05:12:30;95111.34;;;13.69;56.83
6128;BME280;7073;42.672;23.256;2023-10-09T05:14:56;95114.28;;;13.55;57.88
6128;BME280;7073;42.672;23.256;2023-10-09T05:17:35;95112.31;;;13.50;57.31
6128;BME280;7073;42.672;23.256;2023-10-09T05:20:04;95114.09;;;13.56;56.91
6128;BME280;7073;42.672;23.256;2023-10-09T05:22:51;95117.72;;;13.55;56.65
6128;BME280;7073;42.672;23.256;2023-10-09T05:25:25;95114.81;;;13.63;56.85
6128;BME280;7073;42.672;23.256;2023-10-09T05:28:20;95134.03;;;13.75;56.56
6128;BME280;7073;42.672;23.256;2023-10-09T05:31:07;95126.47;;;13.67;56.43
6128;BME280;7073;42.672;23.256;2023-10-09T05:33:36;95142.94;;;13.74;55.93
6128;BME280;7073;42.672;23.256;2023-10-09T05:36:04;95143.66;;;13.57;56.29
6128;BME280;7073;42.672;23.256;2023-10-09T05:38:47;95144.50;;;13.75;55.97
6128;BME280;7073;42.672;23.256;2023-10-09T05:41:24;95148.50;;;14.02;54.97
6128;BME280;7073;42.672;23.256;2023-10-09T05:44:08;95150.25;;;13.90;54.46
6128;BME280;7073;42.672;23.256;2023-10-09T05:46:52;95154.44;;;13.91;54.76
6128;BME280;7073;42.672;23.256;2023-10-09T05:49:49;95159.25;;;13.94;54.78
6128;BME280;7073;42.672;23.256;2023-10-09T05:52:43;95174.34;;;14.17;53.94
6128;BME280;7073;42.672;23.256;2023-10-09T05:55:31;95156.25;;;14.16;52.95
6128;BME280;7073;42.672;23.256;2023-10-09T05:58:29;95185.63;;;14.42;52.96
6128;BME280;7073;42.672;23.256;2023-10-09T06:01:29;95192.78;;;14.29;52.90
6128;BME280;7073;42.672;23.256;2023-10-09T06:04:13;95182.88;;;14.31;52.62
6128;BME280;7073;42.672;23.256;2023-10-09T06:06:44;95192.69;;;14.17;52.33
6128;BME280;7073;42.672;23.256;2023-10-09T06:09:12;95201.22;;;14.37;52.22
6128;BME280;7073;42.672;23.256;2023-10-09T06:12:02;95197.06;;;14.48;52.24
6128;BME280;7073;42.672;23.256;2023-10-09T06:14:47;95203.25;;;14.72;52.18
6128;BME280;7073;42.672;23.256;2023-10-09T06:17:24;95193.69;;;14.41;52.06
6128;BME280;7073;42.672;23.256;2023-10-09T06:19:52;95208.13;;;14.68;52.06
6128;BME280;7073;42.672;23.256;2023-10-09T06:22:25;95207.84;;;14.58;51.67
6128;BME280;7073;42.672;23.256;2023-10-09T06:25:10;95207.56;;;14.48;51.63
6128;BME280;7073;42.672;23.256;2023-10-09T06:27:39;95199.91;;;14.83;51.00
6128;BME280;7073;42.672;23.256;2023-10-09T06:30:25;95210.66;;;15.11;50.87
6128;BME280;7073;42.672;23.256;2023-10-09T06:32:54;95218.28;;;15.12;49.54
6128;BME280;7073;42.672;23.256;2023-10-09T06:35:38;95215.50;;;14.96;50.17
6128;BME280;7073;42.672;23.256;2023-10-09T06:38:15;95220.66;;;15.02;49.17
6128;BME280;7073;42.672;23.256;2023-10-09T06:40:59;95225.84;;;14.91;49.15
6128;BME280;7073;42.672;23.256;2023-10-09T06:43:43;95209.81;;;14.62;49.31
6128;BME280;7073;42.672;23.256;2023-10-09T06:46:16;95194.06;;;14.81;49.42
6128;BME280;7073;42.672;23.256;2023-10-09T06:49:17;95213.78;;;15.01;48.12
6128;BME280;7073;42.672;23.256;2023-10-09T06:51:58;95202.06;;;14.86;47.91
6128;BME280;7073;42.672;23.256;2023-10-09T06:54:41;95218.09;;;15.14;47.21
6128;BME280;7073;42.672;23.256;2023-10-09T06:57:16;95224.53;;;15.29;47.36
6128;BME280;7073;42.672;23.256;2023-10-09T07:00:03;95224.72;;;15.16;47.08
6128;BME280;7073;42.672;23.256;2023-10-09T07:02:47;95186.50;;;14.91;46.63
6128;BME280;7073;42.672;23.256;2023-10-09T07:05:15;95196.28;;;15.13;45.83
6128;BME280;7073;42.672;23.256;2023-10-09T07:07:43;95216.03;;;15.16;45.04
6128;BME280;7073;42.672;23.256;2023-10-09T07:10:21;95223.34;;;15.14;45.24
6128;BME280;7073;42.672;23.256;2023-10-09T07:12:59;95226.38;;;15.29;45.47
6128;BME280;7073;42.672;23.256;2023-10-09T07:15:28;95230.91;;;15.22;45.10
6128;BME280;7073;42.672;23.256;2023-10-09T07:18:13;95222.81;;;15.23;45.26
6128;BME280;7073;42.672;23.256;2023-10-09T07:20:50;95228.50;;;15.20;45.23
6128;BME280;7073;42.672;23.256;2023-10-09T07:23:27;95221.56;;;15.26;44.52
6128;BME280;7073;42.672;23.256;2023-10-09T07:26:05;95202.81;;;15.22;45.25
6128;BME280;7073;42.672;23.256;2023-10-09T07:28:46;95225.81;;;15.39;45.10
6128;BME280;7073;42.672;23.256;2023-10-09T07:31:19;95231.97;;;15.32;43.97
6128;BME280;7073;42.672;23.256;2023-10-09T07:34:05;95225.53;;;15.17;44.39
6128;BME280;7073;42.672;23.256;2023-10-09T07:36:55;95220.69;;;15.32;44.02
6128;BME280;7073;42.672;23.256;2023-10-09T07:39:22;95212.25;;;15.42;44.50
6128;BME280;7073;42.672;23.256;2023-10-09T07:41:49;95216.13;;;15.39;43.90
6128;BME280;7073;42.672;23.256;2023-10-09T07:44:41;95227.81;;;15.84;41.59
6128;BME280;7073;42.672;23.256;2023-10-09T07:47:18;95230.00;;;15.87;43.34
6128;BME280;7073;42.672;23.256;2023-10-09T07:50:11;95232.88;;;15.98;41.77
6128;BME280;7073;42.672;23.256;2023-10-09T07:52:43;95237.78;;;16.17;41.76
6128;BME280;7073;42.672;23.256;2023-10-09T07:55:10;95236.84;;;15.88;41.94
6128;BME280;7073;42.672;23.256;2023-10-09T07:57:51;95239.22;;;15.67;40.83
6128;BME280;7073;42.672;23.256;2023-10-09T08:00:18;95216.03;;;15.75;41.05
6128;BME280;7073;42.672;23.256;2023-10-09T08:03:05;95218.66;;;15.75;41.86
6128;BME280;7073;42.672;23.256;2023-10-09T08:05:49;95232.38;;;15.89;42.43
6128;BME280;7073;42.672;23.256;2023-10-09T08:08:19;95216.34;;;15.67;41.58
6128;BME280;7073;42.672;23.256;2023-10-09T08:11:06;95213.38;;;15.64;41.78
6128;BME280;7073;42.672;23.256;2023-10-09T08:13:50;95239.97;;;16.20;41.07
6128;BME280;7073;42.672;23.256;2023-10-09T08:16:26;95236.56;;;16.31;41.79
6128;BME280;7073;42.672;23.256;2023-10-09T08:19:02;95229.91;;;16.52;40.48
6128;BME280;7073;42.672;23.256;2023-10-09T08:21:46;95233.94;;;16.66;40.51
6128;BME280;7073;42.672;23.256;2023-10-09T08:24:35;95233.53;;;17.09;39.51
6128;BME280;7073;42.672;23.256;2023-10-09T08:27:06;95213.50;;;16.57;40.00
6128;BME280;7073;42.672;23.256;2023-10-09T08:29:51;95230.72;;;16.87;40.77
6128;BME280;7073;42.672;23.256;2023-10-09T08:32:38;95222.00;;;16.98;39.84
6128;BME280;7073;42.672;23.256;2023-10-09T08:35:07;95211.75;;;17.13;38.46
6128;BME280;7073;42.672;23.256;2023-10-09T08:37:44;95204.66;;;17.42;38.68
6128;BME280;7073;42.672;23.256;2023-10-09T08:40:16;95163.91;;;16.77;39.53
6128;BME280;7073;42.672;23.256;2023-10-09T08:42:49;95198.31;;;17.27;39.36
6128;BME280;7073;42.672;23.256;2023-10-09T08:45:22;95180.66;;;17.27;38.65
6128;BME280;7073;42.672;23.256;2023-10-09T08:47:56;95170.00;;;17.62;37.26
6128;BME280;7073;42.672;23.256;2023-10-09T08:50:27;95187.09;;;17.93;36.78
6128;BME280;7073;42.672;23.256;2023-10-09T08:52:54;95183.97;;;17.79;36.60
6128;BME280;7073;42.672;23.256;2023-10-09T08:55:22;95176.69;;;17.86;37.28
6128;BME280;7073;42.672;23.256;2023-10-09T08:57:49;95181.59;;;17.78;37.16
6128;BME280;7073;42.672;23.256;2023-10-09T09:00:18;95178.13;;;18.27;36.43
6128;BME280;7073;42.672;23.256;2023-10-09T09:02:49;95169.13;;;18.45;35.62
6128;BME280;7073;42.672;23.256;2023-10-09T09:05:19;95166.16;;;18.19;36.62
6128;BME280;7073;42.672;23.256;2023-10-09T09:07:47;95183.00;;;18.35;36.30
6128;BME280;7073;42.672;23.256;2023-10-09T09:10:14;95166.34;;;18.34;36.04
6128;BME280;7073;42.672;23.256;2023-10-09T09:12:48;95173.19;;;18.69;35.76
6128;BME280;7073;42.672;23.256;2023-10-09T09:15:19;95183.38;;;19.04;35.30
6128;BME280;7073;42.672;23.256;2023-10-09T09:17:47;95176.75;;;19.01;35.26
6128;BME280;7073;42.672;23.256;2023-10-09T09:20:23;95176.13;;;18.72;34.90
6128;BME280;7073;42.672;23.256;2023-10-09T09:22:56;95169.63;;;19.02;35.36
6128;BME280;7073;42.672;23.256;2023-10-09T09:25:23;95168.28;;;19.26;34.61
6128;BME280;7073;42.672;23.256;2023-10-09T09:27:52;95165.78;;;19.36;35.15
6128;BME280;7073;42.672;23.256;2023-10-09T09:30:24;95174.41;;;19.31;35.11
6128;BME280;7073;42.672;23.256;2023-10-09T09:32:57;95168.13;;;19.59;34.41
6128;BME280;7073;42.672;23.256;2023-10-09T09:35:38;95148.41;;;20.08;33.34
6128;BME280;7073;42.672;23.256;2023-10-09T09:38:08;95162.22;;;20.52;32.27
6128;BME280;7073;42.672;23.256;2023-10-09T09:40:43;95141.16;;;20.72;31.59
6128;BME280;7073;42.672;23.256;2023-10-09T09:43:13;95131.19;;;21.05;31.17
6128;BME280;7073;42.672;23.256;2023-10-09T09:45:47;95152.63;;;20.93;31.66
6128;BME280;7073;42.672;23.256;2023-10-09T09:48:16;95156.59;;;20.96;31.07
6128;BME280;7073;42.672;23.256;2023-10-09T09:50:43;95161.00;;;20.70;31.04
6128;BME280;7073;42.672;23.256;2023-10-09T09:53:11;95162.25;;;20.62;31.18
6128;BME280;7073;42.672;23.256;2023-10-09T09:55:45;95156.28;;;20.82;31.03
6128;BME280;7073;42.672;23.256;2023-10-09T09:58:19;95141.31;;;21.18;30.41
6128;BME280;7073;42.672;23.256;2023-10-09T10:00:50;95135.28;;;21.68;28.95
6128;BME280;7073;42.672;23.256;2023-10-09T10:03:24;95119.59;;;21.31;30.44
6128;BME280;7073;42.672;23.256;2023-10-09T10:05:54;95126.56;;;20.65;31.02
6128;BME280;7073;42.672;23.256;2023-10-09T10:08:24;95115.09;;;21.26;30.35
6128;BME280;7073;42.672;23.256;2023-10-09T10:10:57;95115.91;;;21.27;30.39
6128;BME280;7073;42.672;23.256;2023-10-09T10:13:56;95114.09;;;21.73;29.85
6128;BME280;7073;42.672;23.256;2023-10-09T10:16:25;95109.81;;;21.42;30.33
6128;BME280;7073;42.672;23.256;2023-10-09T10:19:01;95106.09;;;21.68;29.08
6128;BME280;7073;42.672;23.256;2023-10-09T10:21:47;95083.28;;;21.16;29.07
6128;BME280;7073;42.672;23.256;2023-10-09T10:24:40;95089.91;;;22.20;28.63
6128;BME280;7073;42.672;23.256;2023-10-09T10:27:21;95075.88;;;22.04;28.29
6128;BME280;7073;42.672;23.256;2023-10-09T10:30:30;95072.13;;;22.20;28.46
6128;BME280;7073;42.672;23.256;2023-10-09T10:33:02;95054.47;;;22.65;28.38
6128;BME280;7073;42.672;23.256;2023-10-09T10:35:37;95053.28;;;22.91;28.52
6128;BME280;7073;42.672;23.256;2023-10-09T10:38:31;95053.38;;;22.61;28.33
6128;BME280;7073;42.672;23.256;2023-10-09T10:41:12;95042.81;;;22.50;28.62
6128;BME280;7073;42.672;23.256;2023-10-09T10:43:42;95037.03;;;22.33;29.67
6128;BME280;7073;42.672;23.256;2023-10-09T10:46:24;95038.75;;;22.73;28.19
6128;BME280;7073;42.672;23.256;2023-10-09T10:48:56;95033.53;;;23.02;28.65
6128;BME280;7073;42.672;23.256;2023-10-09T10:51:26;95032.53;;;23.32;28.00
6128;BME280;7073;42.672;23.256;2023-10-09T10:54:01;95025.53;;;23.07;27.76
6128;BME280;7073;42.672;23.256;2023-10-09T10:56:49;95028.34;;;23.59;27.91
6128;BME280;7073;42.672;23.256;2023-10-09T10:59:15;95025.16;;;23.57;27.67
6128;BME280;7073;42.672;23.256;2023-10-09T11:01:50;95023.56;;;23.23;28.32
6128;BME280;7073;42.672;23.256;2023-10-09T11:04:19;95015.59;;;23.23;28.11
6128;BME280;7073;42.672;23.256;2023-10-09T11:06:53;95020.50;;;23.00;27.74
6128;BME280;7073;42.672;23.256;2023-10-09T11:09:27;95018.16;;;23.33;28.18
6128;BME280;7073;42.672;23.256;2023-10-09T11:12:05;95012.09;;;22.88;27.46
6128;BME280;7073;42.672;23.256;2023-10-09T11:14:47;94996.84;;;23.43;27.87
6128;BME280;7073;42.672;23.256;2023-10-09T11:17:33;94993.06;;;23.10;27.60
6128;BME280;7073;42.672;23.256;2023-10-09T11:20:02;94985.84;;;23.54;27.51
6128;BME280;7073;42.672;23.256;2023-10-09T11:22:49;94975.69;;;23.56;27.26
6128;BME280;7073;42.672;23.256;2023-10-09T11:25:42;94969.06;;;23.20;27.42
6128;BME280;7073;42.672;23.256;2023-10-09T11:28:19;94962.41;;;23.56;27.84
6128;BME280;7073;42.672;23.256;2023-10-09T11:30:58;94974.94;;;23.80;27.06
6128;BME280;7073;42.672;23.256;2023-10-09T11:33:44;94962.59;;;23.65;26.68
6128;BME280;7073;42.672;23.256;2023-10-09T11:36:10;94976.97;;;23.30;27.55
6128;BME280;7073;42.672;23.256;2023-10-09T11:38:37;94970.06;;;23.87;26.62
6128;BME280;7073;42.672;23.256;2023-10-09T11:41:12;94976.41;;;23.91;25.94
6128;BME280;7073;42.672;23.256;2023-10-09T11:43:49;94966.19;;;23.74;26.95
6128;BME280;7073;42.672;23.256;2023-10-09T11:46:18;94959.44;;;24.10;26.10
6128;BME280;7073;42.672;23.256;2023-10-09T11:49:06;94950.72;;;24.66;25.29
6128;BME280;7073;42.672;23.256;2023-10-09T11:52:05;94946.38;;;23.61;25.91
6128;BME280;7073;42.672;23.256;2023-10-09T11:54:49;94935.38;;;23.10;26.53
6128;BME280;7073;42.672;23.256;2023-10-09T11:57:16;94933.88;;;24.52;26.31
6128;BME280;7073;42.672;23.256;2023-10-09T11:59:43;94928.34;;;25.04;25.54
6128;BME280;7073;42.672;23.256;2023-10-09T12:02:10;94921.31;;;25.40;24.60
6128;BME280;7073;42.672;23.256;2023-10-09T12:04:40;94919.75;;;25.07;25.45
6128;BME280;7073;42.672;23.256;2023-10-09T12:07:07;94912.50;;;24.75;24.72
6128;BME280;7073;42.672;23.256;2023-10-09T12:09:35;94903.53;;;25.04;23.13
6128;BME280;7073;42.672;23.256;2023-10-09T12:12:04;94917.09;;;24.51;23.22
6128;BME280;7073;42.672;23.256;2023-10-09T12:14:31;94905.94;;;25.19;23.25
6128;BME280;7073;42.672;23.256;2023-10-09T12:17:04;94910.13;;;24.13;23.08
6128;BME280;7073;42.672;23.256;2023-10-09T12:19:32;94908.47;;;24.59;22.84
6128;BME280;7073;42.672;23.256;2023-10-09T12:22:02;94898.94;;;24.90;22.17
6128;BME280;7073;42.672;23.256;2023-10-09T12:24:31;94897.28;;;24.20;22.11
6128;BME280;7073;42.672;23.256;2023-10-09T12:26:59;94890.00;;;24.81;21.91
6128;BME280;7073;42.672;23.256;2023-10-09T12:29:26;94899.66;;;25.42;21.54
6128;BME280;7073;42.672;23.256;2023-10-09T12:31:55;94888.97;;;25.47;20.95
6128;BME280;7073;42.672;23.256;2023-10-09T12:34:24;94893.63;;;25.23;21.45
6128;BME280;7073;42.672;23.256;2023-10-09T12:37:09;94885.47;;;24.82;21.16
6128;BME280;7073;42.672;23.256;2023-10-09T12:39:43;94873.22;;;25.13;20.88
6128;BME280;7073;42.672;23.256;2023-10-09T12:42:13;94865.94;;;25.65;20.55
6128;BME280;7073;42.672;23.256;2023-10-09T12:44:42;94860.53;;;25.37;20.44
6128;BME280;7073;42.672;23.256;2023-10-09T12:47:12;94867.91;;;25.86;20.43
6128;BME280;7073;42.672;23.256;2023-10-09T12:49:42;94874.09;;;25.68;19.88
6128;BME280;7073;42.672;23.256;2023-10-09T12:52:12;94839.38;;;25.41;20.52
6128;BME280;7073;42.672;23.256;2023-10-09T12:54:45;94852.66;;;25.46;19.98
6128;BME280;7073;42.672;23.256;2023-10-09T12:57:18;94844.66;;;25.46;19.53
6128;BME280;7073;42.672;23.256;2023-10-09T12:59:46;94850.28;;;26.13;19.54
6128;BME280;7073;42.672;23.256;2023-10-09T13:02:14;94851.44;;;26.34;18.86
6128;BME280;7073;42.672;23.256;2023-10-09T13:05:07;94849.56;;;26.07;18.59
6128;BME280;7073;42.672;23.256;2023-10-09T13:07:53;94837.44;;;25.46;19.20
6128;BME280;7073;42.672;23.256;2023-10-09T13:10:23;94833.31;;;25.08;19.66
6128;BME280;7073;42.672;23.256;2023-10-09T13:12:51;94830.03;;;24.98;19.49
6128;BME280;7073;42.672;23.256;2023-10-09T13:15:22;94830.09;;;25.38;18.61
6128;BME280;7073;42.672;23.256;2023-10-09T13:17:49;94823.97;;;25.38;19.01
6128;BME280;7073;42.672;23.256;2023-10-09T13:20:18;94820.75;;;25.55;18.56
6128;BME280;7073;42.672;23.256;2023-10-09T13:22:47;94818.94;;;25.50;19.39
6128;BME280;7073;42.672;23.256;2023-10-09T13:25:17;94813.50;;;24.82;19.62
6128;BME280;7073;42.672;23.256;2023-10-09T13:27:50;94815.75;;;25.07;19.25
6128;BME280;7073;42.672;23.256;2023-10-09T13:30:18;94810.81;;;25.28;19.65
6128;BME280;7073;42.672;23.256;2023-10-09T13:32:49;94804.03;;;25.63;19.07
6128;BME280;7073;42.672;23.256;2023-10-09T13:35:17;94807.78;;;26.25;18.39
6128;BME280;7073;42.672;23.256;2023-10-09T13:37:45;94801.75;;;25.83;19.32
6128;BME280;7073;42.672;23.256;2023-10-09T13:40:21;94801.03;;;25.91;19.05
6128;BME280;7073;42.672;23.256;2023-10-09T13:42:56;94803.75;;;26.00;19.25
6128;BME280;7073;42.672;23.256;2023-10-09T13:45:25;94796.50;;;25.65;19.43
6128;BME280;7073;42.672;23.256;2023-10-09T13:47:54;94798.41;;;26.00;19.00
6128;BME280;7073;42.672;23.256;2023-10-09T13:50:23;94789.81;;;26.03;19.00
6128;BME280;7073;42.672;23.256;2023-10-09T13:52:55;94787.34;;;26.20;19.69